57400 SARREBOURG
Donnes mto: Actuelle dimanche, 05/04/2020 18:50
Date Horaire Temp. E. Hum. E. P.atmo. Pluie Vent Direction Direction Ensoleilleme Ev.Tr. UV Solaire P. de rose Temp au vent Rafales
05/04/2020 18:50 18.8 C 33 % 1018.1 hPa 0.0 l/m 9.0 km/h E-NE 71 60 min 0.330 mm 0.0 UV-I 165 W/m 2.2 C 18.8 C 19.3 km/h
05/04/2020 17:50 19.6 C 31 % 1018.5 hPa 0.0 l/m 7.7 km/h E-SE 105 60 min 0.406 mm 0.8 UV-I 350 W/m 2.0 C 19.6 C 17.7 km/h
05/04/2020 16:50 19.3 C 36 % 1019.1 hPa 0.0 l/m 9.3 km/h E-NE 59 60 min 0.457 mm 1.9 UV-I 506 W/m 3.9 C 19.3 C 19.3 km/h
05/04/2020 15:50 19.1 C 36 % 1019.8 hPa 0.0 l/m 11.1 km/h NE 38 60 min 0.483 mm 3.1 UV-I 633 W/m 3.7 C 19.1 C 19.3 km/h
05/04/2020 14:50 18.9 C 36 % 1020.6 hPa 0.0 l/m 9.8 km/h N-NE 33 60 min 0.457 mm 4.1 UV-I 715 W/m 3.5 C 18.9 C 17.7 km/h
05/04/2020 13:50 18.1 C 43 % 1021.2 hPa 0.0 l/m 8.4 km/h N-NE 28 60 min 0.432 mm 4.6 UV-I 754 W/m 5.3 C 18.1 C 16.1 km/h
05/04/2020 12:50 17.2 C 42 % 1021.8 hPa 0.0 l/m 2.7 km/h N 9 60 min 0.356 mm 4.4 UV-I 740 W/m 4.2 C 17.2 C 6.4 km/h
05/04/2020 11:50 15.9 C 47 % 1022.2 hPa 0.0 l/m 4.7 km/h N-NE 18 60 min 0.279 mm 3.6 UV-I 671 W/m 4.6 C 15.9 C 11.3 km/h
05/04/2020 10:50 13.3 C 53 % 1022.6 hPa 0.0 l/m 3.6 km/h N 5 60 min 0.203 mm 2.4 UV-I 557 W/m 3.9 C 13.3 C 8.0 km/h
05/04/2020 09:50 11.6 C 58 % 1022.3 hPa 0.0 l/m 7.2 km/h N-NE 20 60 min 0.102 mm 1.4 UV-I 408 W/m 3.6 C 11.6 C 12.9 km/h
05/04/2020 08:50 8.3 C 67 % 1022.2 hPa 0.0 l/m 8.8 km/h NE 42 30 min 0.025 mm 0.5 UV-I 241 W/m 2.5 C 6.8 C 14.5 km/h
05/04/2020 07:50 5.4 C 74 % 1021.9 hPa 0.0 l/m 5.9 km/h NE 47 0 min 0.003 mm 0.0 UV-I 26 W/m 1.1 C 4.2 C 11.3 km/h
05/04/2020 06:50 5.4 C 74 % 1021.7 hPa 0.0 l/m 9.0 km/h E-NE 63 0 min 0.025 mm 0.0 UV-I 0 W/m 1.1 C 3.4 C 19.3 km/h
05/04/2020 05:50 5.6 C 74 % 1021.8 hPa 0.0 l/m 8.0 km/h E-NE 67 0 min 0.025 mm 0.0 UV-I 0 W/m 1.3 C 3.8 C 16.1 km/h
05/04/2020 04:50 5.9 C 72 % 1021.7 hPa 0.0 l/m 6.4 km/h NE 45 0 min 0.025 mm 0.0 UV-I 0 W/m 1.2 C 4.6 C 11.3 km/h
05/04/2020 03:50 5.5 C 74 % 1021.7 hPa 0.0 l/m 4.8 km/h NE 45 0 min 0.025 mm 0.0 UV-I 0 W/m 1.2 C 4.7 C 8.0 km/h
05/04/2020 02:50 5.4 C 74 % 1022.1 hPa 0.0 l/m 4.8 km/h NE 45 0 min 0.025 mm 0.0 UV-I 0 W/m 1.1 C 4.6 C 8.0 km/h
05/04/2020 01:50 6.8 C 69 % 1022.5 hPa 0.0 l/m 4.8 km/h NE 45 0 min 0.025 mm 0.0 UV-I 0 W/m 1.5 C 6.2 C 9.7 km/h
05/04/2020 00:50 7.5 C 66 % 1022.6 hPa 0.0 l/m 4.8 km/h E-NE 67 0 min 0.025 mm 0.0 UV-I 0 W/m 1.6 C 7.0 C 12.9 km/h
04/04/2020 23:50 7.3 C 67 % 1022.6 hPa 0.0 l/m 3.2 km/h E-NE 67 0 min 0.025 mm 0.0 UV-I 0 W/m 1.6 C 7.3 C 11.3 km/h
04/04/2020 22:50 6.6 C 68 % 1022.6 hPa 0.0 l/m 4.8 km/h E-NE 67 0 min 0.025 mm 0.0 UV-I 0 W/m 1.1 C 6.0 C 11.3 km/h
04/04/2020 21:50 6.9 C 67 % 1022.9 hPa 0.0 l/m 1.4 km/h E-NE 68 0 min 0.001 mm 0.0 UV-I 0 W/m 1.2 C 6.9 C 3.2 km/h
04/04/2020 20:50 9.1 C 60 % 1022.6 hPa 0.0 l/m 2.3 km/h E-NE 68 0 min 0.076 mm 0.0 UV-I 0 W/m 1.8 C 9.1 C 4.8 km/h
04/04/2020 19:50 12.5 C 53 % 1022.2 hPa 0.0 l/m 6.6 km/h NE 51 20 min 0.178 mm 0.0 UV-I 16 W/m 3.2 C 12.5 C 14.5 km/h
04/04/2020 19:00 14.3 C 47 % 1021.8 hPa 0.0 l/m 10.1 km/h E 90 0 min 0.000 mm 0.0 UV-I 125 W/m 3.1 C 14.3 C 20.9 km/h
_ Min-Heure 03:30 17:40 18:50 - 21:30 - - - - - - 03:00 07:00 22:10
Minimum _ 4.9 C 31 % 1018.1 hPa - 0.1 km/h - - - - - - 0.9 C 3.2 C 1.6 km/h
_ Max-Heure 17:30 03:30 21:50 19:00 15:10 - - 19:00 15:10 13:20 13:40 13:40 17:30 15:10
Maximum _ 19.6 C 76 % 1022.9 hPa 0.0 l/m 11.4 km/h
N-NE
- - 10 min 0.483 mm 4.6 UV-I 756 W/m 5.8 C 19.6 C 22.5 km/h
NE
Moyenne _ 11.4 C 57 % 1021.6 hPa #0.0 l/m 6.5 km/h E-NE - #10:30 h #3.708 mm 2.8 UV-I 484 W/m 2.6 C 11.0 C 13.5 km/h
Station mto Vantage PRO 2 Plus Ventile